createdAt,value
2022-07-29T00:00:37.600Z,1.75
2022-07-29T00:03:05.290Z,1.30
2022-07-29T00:05:33.014Z,1.60
2022-07-29T00:08:00.504Z,1.38
2022-07-29T00:10:28.066Z,1.50
2022-07-29T00:12:55.593Z,1.10
2022-07-29T00:15:23.105Z,1.40
2022-07-29T00:17:51.975Z,1.70
2022-07-29T00:20:19.625Z,1.38
2022-07-29T00:22:47.134Z,1.30
2022-07-29T00:25:14.972Z,1.25
2022-07-29T00:27:42.465Z,1.33
2022-07-29T00:30:10.265Z,1.58
2022-07-29T00:32:37.894Z,1.10
2022-07-29T00:35:25.382Z,1.60
2022-07-29T00:37:52.878Z,1.27
2022-07-29T00:40:23.635Z,1.40
2022-07-29T00:42:53.700Z,1.58
2022-07-29T00:45:22.829Z,1.42
2022-07-29T00:47:51.124Z,1.33
2022-07-29T00:50:20.133Z,1.38
2022-07-29T00:52:47.645Z,1.67
2022-07-29T00:55:16.781Z,1.67
2022-07-29T00:57:44.755Z,1.15
2022-07-29T01:00:13.924Z,1.30
2022-07-29T01:02:41.521Z,1.30
2022-07-29T01:05:09.320Z,1.60
2022-07-29T01:07:38.811Z,1.70
2022-07-29T01:10:07.298Z,1.40
2022-07-29T01:12:35.690Z,1.55
2022-07-29T01:15:03.473Z,1.70
2022-07-29T01:17:34.183Z,1.70
2022-07-29T01:20:06.944Z,1.48
2022-07-29T01:22:42.028Z,1.80
2022-07-29T01:25:19.487Z,1.70
2022-07-29T01:27:53.681Z,1.50
2022-07-29T01:30:24.551Z,1.83
2022-07-29T01:32:55.108Z,1.70
2022-07-29T01:35:25.400Z,1.77
2022-07-29T01:37:57.630Z,1.90
2022-07-29T01:40:27.698Z,2.47
2022-07-29T01:42:57.583Z,2.03
2022-07-29T01:45:28.561Z,1.90
2022-07-29T01:47:58.630Z,2.40
2022-07-29T01:50:29.022Z,1.95
2022-07-29T01:52:58.435Z,2.30
2022-07-29T01:55:27.571Z,2.38
2022-07-29T01:57:55.855Z,1.90
2022-07-29T02:00:23.978Z,2.10
2022-07-29T02:02:53.404Z,1.88
2022-07-29T02:05:22.314Z,2.08
2022-07-29T02:07:50.372Z,2.05
2022-07-29T02:10:18.923Z,2.00
2022-07-29T02:12:50.931Z,2.13
2022-07-29T02:15:18.818Z,2.03
2022-07-29T02:17:48.729Z,2.05
2022-07-29T02:20:18.030Z,2.30
2022-07-29T02:23:05.484Z,1.77
2022-07-29T02:25:37.584Z,2.03
2022-07-29T02:28:06.767Z,1.95
2022-07-29T02:30:34.924Z,2.13
2022-07-29T02:33:02.929Z,2.25
2022-07-29T02:35:34.627Z,1.92
2022-07-29T02:38:21.221Z,2.22
2022-07-29T02:40:48.885Z,2.22
2022-07-29T02:43:16.871Z,2.50
2022-07-29T02:45:44.681Z,2.00
2022-07-29T02:48:15.053Z,2.05
2022-07-29T02:50:46.321Z,2.20
2022-07-29T02:53:15.526Z,2.08
2022-07-29T02:55:45.755Z,2.08
2022-07-29T02:58:17.675Z,2.10
2022-07-29T03:00:48.087Z,2.30
2022-07-29T03:03:17.998Z,2.45
2022-07-29T03:05:46.792Z,2.10
2022-07-29T03:08:14.756Z,2.28
2022-07-29T03:10:44.656Z,2.33
2022-07-29T03:13:13.338Z,2.30
2022-07-29T03:15:41.073Z,2.45
2022-07-29T03:18:09.113Z,2.63
2022-07-29T03:20:36.620Z,2.50
2022-07-29T03:23:05.536Z,2.13
2022-07-29T03:25:33.245Z,2.10
2022-07-29T03:28:00.931Z,2.20
2022-07-29T03:30:31.635Z,2.22
2022-07-29T03:32:59.675Z,2.00
2022-07-29T03:35:27.185Z,2.20
2022-07-29T03:37:54.677Z,1.98
2022-07-29T03:40:24.361Z,2.15
2022-07-29T03:42:53.008Z,2.38
2022-07-29T03:45:20.852Z,2.15
2022-07-29T03:47:52.886Z,2.50
2022-07-29T03:50:23.298Z,2.50
2022-07-29T03:52:51.142Z,2.30
2022-07-29T03:55:18.847Z,2.20
2022-07-29T03:57:48.291Z,2.25
2022-07-29T04:00:17.292Z,2.50
2022-07-29T04:02:49.123Z,2.45
2022-07-29T04:05:17.354Z,2.40
2022-07-29T04:07:45.476Z,2.55
2022-07-29T04:10:13.021Z,2.42
2022-07-29T04:12:40.566Z,2.53
2022-07-29T04:15:10.205Z,2.78
2022-07-29T04:17:37.649Z,3.13
2022-07-29T04:20:05.574Z,2.65
2022-07-29T04:22:33.172Z,2.50
2022-07-29T04:25:03.942Z,2.13
2022-07-29T04:27:31.779Z,2.38
2022-07-29T04:29:59.288Z,2.28
2022-07-29T04:32:28.193Z,2.30
2022-07-29T04:34:55.616Z,2.47
2022-07-29T04:37:23.085Z,2.50
2022-07-29T04:39:50.533Z,2.95
2022-07-29T04:42:18.057Z,2.50
2022-07-29T04:44:55.109Z,2.70
2022-07-29T04:47:22.737Z,2.50
2022-07-29T04:49:51.509Z,2.10
2022-07-29T04:52:18.969Z,2.40
2022-07-29T04:54:46.419Z,2.90
2022-07-29T04:57:13.842Z,2.60
2022-07-29T04:59:41.313Z,2.83
2022-07-29T05:02:08.769Z,2.75
2022-07-29T05:04:36.210Z,3.05
2022-07-29T05:07:05.032Z,2.78
2022-07-29T05:09:33.192Z,2.80
2022-07-29T05:12:00.636Z,2.60
2022-07-29T05:14:28.138Z,2.90
2022-07-29T05:16:57.631Z,3.35
2022-07-29T05:19:25.271Z,2.90
2022-07-29T05:21:52.740Z,3.17
2022-07-29T05:24:21.748Z,3.13
2022-07-29T05:26:49.206Z,3.10
2022-07-29T05:29:44.588Z,2.63
2022-07-29T05:32:04.350Z,3.28
2022-07-29T05:34:31.854Z,3.00
2022-07-29T05:36:59.609Z,2.60
2022-07-29T05:39:47.182Z,3.03
2022-07-29T05:42:15.826Z,2.70
2022-07-29T05:44:43.282Z,2.97
2022-07-29T05:47:10.758Z,3.30
2022-07-29T05:49:38.335Z,3.50
2022-07-29T05:52:08.490Z,3.08
2022-07-29T05:54:37.489Z,3.47
2022-07-29T05:57:05.000Z,3.20
2022-07-29T05:59:32.468Z,2.90
2022-07-29T06:02:00.103Z,2.60
2022-07-29T06:04:27.663Z,2.88
2022-07-29T06:06:55.190Z,3.00
2022-07-29T06:09:23.958Z,2.83
2022-07-29T06:11:53.281Z,2.85
2022-07-29T06:14:20.708Z,3.10
2022-07-29T06:16:48.495Z,3.00
2022-07-29T06:19:15.974Z,3.30
2022-07-29T06:21:44.425Z,4.47
2022-07-29T06:24:13.256Z,3.28
2022-07-29T06:26:41.204Z,4.20
2022-07-29T06:29:11.532Z,3.47
2022-07-29T06:31:39.325Z,3.13
2022-07-29T06:34:06.801Z,3.30
2022-07-29T06:36:36.367Z,3.08
2022-07-29T06:39:06.091Z,3.30
2022-07-29T06:41:33.576Z,3.72
2022-07-29T06:44:01.191Z,3.35
2022-07-29T06:46:30.109Z,3.40
2022-07-29T06:48:57.689Z,3.30
2022-07-29T06:51:25.333Z,3.50
2022-07-29T06:54:00.141Z,3.20
2022-07-29T06:56:30.700Z,3.55
2022-07-29T06:58:58.181Z,3.20
2022-07-29T07:01:25.717Z,2.90
2022-07-29T07:03:54.554Z,3.50
2022-07-29T07:06:22.028Z,3.38
2022-07-29T07:08:49.519Z,3.40
2022-07-29T07:11:16.965Z,3.10
2022-07-29T07:13:44.436Z,3.17
2022-07-29T07:16:11.947Z,3.15
2022-07-29T07:18:39.412Z,3.35
2022-07-29T07:21:08.256Z,3.33
2022-07-29T07:23:35.742Z,2.97
2022-07-29T07:26:03.949Z,3.10
2022-07-29T07:28:31.418Z,3.63
2022-07-29T07:30:59.531Z,3.22
2022-07-29T07:33:27.003Z,3.40
2022-07-29T07:35:54.718Z,3.47
2022-07-29T07:38:23.522Z,3.30
2022-07-29T07:40:51.011Z,3.55
2022-07-29T07:43:18.472Z,3.30
2022-07-29T07:45:46.184Z,3.38
2022-07-29T07:48:13.715Z,3.42
2022-07-29T07:50:41.148Z,3.33
2022-07-29T07:53:08.694Z,3.15
2022-07-29T07:56:08.152Z,3.17
2022-07-29T07:58:28.733Z,3.80
2022-07-29T08:00:56.345Z,3.20
2022-07-29T08:03:23.838Z,3.20
2022-07-29T08:05:51.969Z,3.50
2022-07-29T08:08:19.466Z,3.70
2022-07-29T08:10:54.015Z,3.20
2022-07-29T08:13:22.520Z,3.65
2022-07-29T08:15:58.369Z,3.33
2022-07-29T08:18:26.278Z,3.38
2022-07-29T08:20:53.718Z,3.95
2022-07-29T08:23:21.478Z,3.22
2022-07-29T08:25:50.554Z,3.90
2022-07-29T08:28:18.042Z,3.45
2022-07-29T08:30:45.779Z,3.67
2022-07-29T08:33:13.301Z,3.60
2022-07-29T08:35:40.905Z,3.15
2022-07-29T08:38:08.407Z,3.45
2022-07-29T08:40:35.925Z,3.13
2022-07-29T08:43:08.360Z,3.28
2022-07-29T08:45:44.810Z,3.53
2022-07-29T08:48:16.288Z,3.13
2022-07-29T08:50:46.518Z,3.28
2022-07-29T08:53:15.138Z,3.72
2022-07-29T08:55:44.354Z,3.35
2022-07-29T08:58:13.576Z,3.40
2022-07-29T09:00:44.641Z,3.30
2022-07-29T09:03:14.388Z,3.60
2022-07-29T09:05:47.764Z,3.40
2022-07-29T09:08:16.061Z,3.00
2022-07-29T09:10:43.526Z,3.08
2022-07-29T09:13:11.025Z,3.20
2022-07-29T09:15:39.891Z,3.20
2022-07-29T09:18:07.366Z,3.10
2022-07-29T09:20:48.798Z,3.20
2022-07-29T09:23:23.017Z,3.40
2022-07-29T09:25:52.276Z,3.50
2022-07-29T09:28:19.922Z,3.75
2022-07-29T09:30:55.330Z,4.10
2022-07-29T09:33:23.248Z,3.55
2022-07-29T09:36:00.770Z,3.88
2022-07-29T09:38:29.818Z,3.55
2022-07-29T09:41:05.832Z,4.07
2022-07-29T09:43:34.276Z,3.80
2022-07-29T09:46:13.396Z,3.33
2022-07-29T09:48:41.007Z,3.45
2022-07-29T09:51:21.302Z,3.90
2022-07-29T09:53:51.272Z,3.53
2022-07-29T09:56:20.592Z,3.85
2022-07-29T09:58:48.057Z,3.65
2022-07-29T10:01:17.019Z,3.90
2022-07-29T10:03:53.684Z,3.55
2022-07-29T10:06:21.164Z,4.03
2022-07-29T10:08:48.983Z,4.15
2022-07-29T10:11:17.928Z,4.45
2022-07-29T10:13:46.199Z,4.22
2022-07-29T10:16:14.333Z,4.47
2022-07-29T10:18:44.453Z,4.13
2022-07-29T10:21:35.074Z,4.28
2022-07-29T10:24:01.451Z,3.83
2022-07-29T10:26:29.283Z,3.70
2022-07-29T10:28:57.332Z,3.85
2022-07-29T10:31:28.962Z,4.05
2022-07-29T10:34:03.422Z,3.30
2022-07-29T10:36:37.638Z,4.07
2022-07-29T10:39:12.737Z,3.63
2022-07-29T10:41:52.653Z,3.03
2022-07-29T10:44:23.168Z,4.25
2022-07-29T10:46:52.347Z,3.35
2022-07-29T10:49:24.931Z,3.35
2022-07-29T10:51:53.645Z,2.95
2022-07-29T10:54:37.644Z,2.85
2022-07-29T11:00:30.961Z,3.00
2022-07-29T11:02:59.295Z,2.70
2022-07-29T11:05:32.305Z,2.92
2022-07-29T11:08:26.163Z,2.95
2022-07-29T11:11:12.593Z,3.00
2022-07-29T11:13:52.464Z,2.65
2022-07-29T11:16:23.004Z,2.90
2022-07-29T11:19:11.319Z,2.72
2022-07-29T11:21:54.106Z,2.70
2022-07-29T11:24:30.024Z,2.50
2022-07-29T11:27:18.242Z,2.70
2022-07-29T11:29:55.031Z,2.65
2022-07-29T11:32:24.178Z,2.35
2022-07-29T11:35:17.269Z,2.67
2022-07-29T11:37:52.576Z,2.13
2022-07-29T11:40:23.533Z,2.50
2022-07-29T11:42:52.515Z,3.03
2022-07-29T11:45:44.313Z,3.15
2022-07-29T11:48:29.642Z,2.20
2022-07-29T11:51:00.375Z,2.03
2022-07-29T11:53:33.000Z,2.70
2022-07-29T11:56:00.976Z,2.97
2022-07-29T11:58:30.331Z,2.35
2022-07-29T12:00:58.739Z,2.67
2022-07-29T12:03:33.530Z,2.80
2022-07-29T12:06:04.219Z,1.80
2022-07-29T12:08:41.452Z,2.15
2022-07-29T12:11:16.940Z,2.05
2022-07-29T12:13:44.359Z,2.10
2022-07-29T12:16:14.620Z,2.03
2022-07-29T12:18:42.340Z,2.05
2022-07-29T12:21:12.359Z,2.05
2022-07-29T12:23:53.983Z,1.40
2022-07-29T12:26:25.485Z,1.80
2022-07-29T12:28:53.212Z,1.88
2022-07-29T12:31:41.954Z,2.08
2022-07-29T12:34:11.303Z,1.55
2022-07-29T12:36:38.799Z,1.80
2022-07-29T12:39:07.600Z,2.38
2022-07-29T12:41:35.584Z,2.22
2022-07-29T12:44:03.252Z,1.73
2022-07-29T12:46:30.780Z,1.52
2022-07-29T12:48:59.601Z,1.75
2022-07-29T12:51:31.939Z,1.58
2022-07-29T12:54:07.822Z,1.88
2022-07-29T12:56:44.151Z,1.58
2022-07-29T12:59:19.067Z,1.80
2022-07-29T13:01:47.953Z,1.70
2022-07-29T13:04:25.695Z,1.38
2022-07-29T13:07:00.033Z,1.90
2022-07-29T13:09:38.112Z,1.55
2022-07-29T13:12:08.235Z,1.50
2022-07-29T13:14:36.736Z,2.33
2022-07-29T13:17:05.907Z,1.65
2022-07-29T13:19:37.803Z,1.48
2022-07-29T13:22:05.716Z,1.63
2022-07-29T13:24:34.506Z,1.60
2022-07-29T13:27:02.035Z,1.65
2022-07-29T13:29:33.212Z,2.10
2022-07-29T13:32:01.128Z,1.90
2022-07-29T13:34:29.233Z,1.88
2022-07-29T13:36:56.672Z,1.90
2022-07-29T13:39:24.178Z,1.50
2022-07-29T13:41:53.340Z,1.83
2022-07-29T13:44:20.824Z,1.63
2022-07-29T13:46:48.314Z,1.60
2022-07-29T13:49:15.882Z,1.60
2022-07-29T13:51:43.605Z,1.20
2022-07-29T13:54:11.044Z,1.73
2022-07-29T13:56:38.577Z,1.35
2022-07-29T13:59:08.587Z,1.40
2022-07-29T14:01:36.297Z,1.40
2022-07-29T14:04:04.532Z,1.52
2022-07-29T14:06:32.252Z,1.95
2022-07-29T14:08:59.716Z,1.60
2022-07-29T14:11:27.215Z,1.73
2022-07-29T14:13:54.641Z,1.67
2022-07-29T14:16:23.728Z,1.80
2022-07-29T14:18:51.215Z,2.08
2022-07-29T14:21:18.695Z,2.08
2022-07-29T14:23:46.142Z,1.70
2022-07-29T14:26:15.957Z,1.60
2022-07-29T14:28:51.840Z,1.60
2022-07-29T14:31:19.431Z,1.52
2022-07-29T14:33:49.274Z,1.60
2022-07-29T14:36:17.020Z,1.55
2022-07-29T14:38:44.542Z,1.50
2022-07-29T14:41:12.141Z,1.80
2022-07-29T14:43:39.924Z,1.63
2022-07-29T14:46:08.640Z,1.80
2022-07-29T14:48:36.254Z,1.52
2022-07-29T14:51:05.319Z,1.83
2022-07-29T14:53:34.700Z,1.75
2022-07-29T14:56:15.389Z,2.00
2022-07-29T14:58:51.892Z,2.00
2022-07-29T15:01:19.668Z,2.10
2022-07-29T15:03:47.181Z,2.90
2022-07-29T15:06:15.974Z,2.38
2022-07-29T15:08:43.443Z,2.28
2022-07-29T15:11:10.901Z,1.70
2022-07-29T15:13:38.405Z,1.83
2022-07-29T15:16:07.040Z,1.60
2022-07-29T15:18:34.533Z,1.85
2022-07-29T15:21:03.211Z,1.70
2022-07-29T15:23:32.007Z,1.50
2022-07-29T15:25:59.479Z,1.65
2022-07-29T15:28:26.946Z,1.70
2022-07-29T15:30:55.377Z,1.75
2022-07-29T15:33:24.344Z,1.98
2022-07-29T15:35:51.781Z,2.15
2022-07-29T15:38:19.462Z,1.85
2022-07-29T15:40:48.303Z,1.77
2022-07-29T15:43:15.754Z,2.20
2022-07-29T15:46:03.825Z,1.80
2022-07-29T15:48:32.333Z,2.03
2022-07-29T15:51:00.200Z,2.13
2022-07-29T15:53:30.582Z,1.80
2022-07-29T15:55:59.378Z,2.30
2022-07-29T15:58:26.860Z,1.73
2022-07-29T16:00:54.418Z,2.08
2022-07-29T16:03:23.074Z,1.70
2022-07-29T16:05:50.517Z,1.75
2022-07-29T16:08:18.019Z,1.80
2022-07-29T16:10:45.538Z,1.50
2022-07-29T16:13:17.095Z,1.75
2022-07-29T16:15:46.478Z,2.08
2022-07-29T16:18:30.732Z,1.80
2022-07-29T16:20:58.657Z,2.25
2022-07-29T16:23:26.170Z,1.90
2022-07-29T16:26:01.496Z,2.20
2022-07-29T16:28:30.631Z,1.83
2022-07-29T16:30:58.230Z,2.03
2022-07-29T16:33:25.803Z,2.20
2022-07-29T16:35:53.635Z,1.80
2022-07-29T16:38:21.226Z,1.63
2022-07-29T16:40:49.411Z,1.80
2022-07-29T16:43:16.876Z,2.05
2022-07-29T16:45:47.016Z,1.70
2022-07-29T16:50:43.323Z,1.90
2022-07-29T16:53:11.441Z,1.65
2022-07-29T16:55:39.121Z,2.17
2022-07-29T16:58:10.004Z,1.90
2022-07-29T17:00:37.526Z,1.83
2022-07-29T17:03:06.587Z,2.10
2022-07-29T17:05:52.296Z,1.70
2022-07-29T17:08:21.734Z,2.25
2022-07-29T17:10:52.208Z,1.65
2022-07-29T17:13:19.730Z,1.92
2022-07-29T17:15:47.222Z,1.60
2022-07-29T17:18:15.997Z,1.70
2022-07-29T17:20:43.467Z,1.73
2022-07-29T17:23:10.951Z,1.70
2022-07-29T17:25:38.430Z,1.80
2022-07-29T17:28:05.935Z,2.20
2022-07-29T17:30:33.402Z,1.92
2022-07-29T17:33:03.094Z,2.00
2022-07-29T17:35:49.377Z,1.98
2022-07-29T17:38:16.813Z,1.90
2022-07-29T17:40:45.287Z,2.10
2022-07-29T17:43:12.734Z,1.67
2022-07-29T17:45:48.698Z,1.75
2022-07-29T17:48:17.916Z,1.98
2022-07-29T17:50:46.793Z,1.67
2022-07-29T17:53:15.645Z,1.83
2022-07-29T17:55:45.200Z,1.80
2022-07-29T17:58:12.950Z,2.20
2022-07-29T18:00:40.499Z,2.00
2022-07-29T18:03:08.125Z,2.08
2022-07-29T18:05:36.000Z,1.70
2022-07-29T18:08:04.960Z,1.65
2022-07-29T18:10:32.450Z,1.58
2022-07-29T18:12:59.950Z,1.80
2022-07-29T18:15:27.453Z,1.38
2022-07-29T18:17:57.811Z,1.80
2022-07-29T18:20:25.793Z,1.73
2022-07-29T18:22:53.236Z,1.63
2022-07-29T18:25:23.670Z,2.00
2022-07-29T18:27:51.180Z,1.85
2022-07-29T18:30:19.182Z,2.05
2022-07-29T18:33:04.955Z,2.00
2022-07-29T18:35:34.200Z,1.65
2022-07-29T18:38:03.120Z,2.10
2022-07-29T18:40:32.478Z,1.70
2022-07-29T18:43:01.252Z,2.08
2022-07-29T18:45:31.523Z,2.00
2022-07-29T18:48:00.267Z,1.90
2022-07-29T18:50:29.654Z,1.75
2022-07-29T18:52:58.526Z,1.80
2022-07-29T18:55:26.503Z,1.90
2022-07-29T18:57:57.160Z,1.65
2022-07-29T19:00:32.989Z,1.60
2022-07-29T19:03:03.110Z,1.70
2022-07-29T19:05:30.795Z,1.73
2022-07-29T19:07:58.712Z,1.60
2022-07-29T19:10:26.758Z,2.03
2022-07-29T19:12:56.740Z,1.90
2022-07-29T19:15:24.269Z,1.55
2022-07-29T19:17:51.721Z,1.67
2022-07-29T19:20:19.223Z,1.80
2022-07-29T19:22:47.128Z,1.95
2022-07-29T19:25:17.255Z,1.80
2022-07-29T19:27:44.702Z,1.90
2022-07-29T19:30:15.980Z,2.00
2022-07-29T19:32:43.472Z,2.00
2022-07-29T19:35:27.975Z,1.67
2022-07-29T19:37:56.291Z,2.60
2022-07-29T19:40:23.837Z,2.30
2022-07-29T19:42:52.729Z,2.38
2022-07-29T19:45:24.560Z,2.40
2022-07-29T19:47:52.077Z,2.67
2022-07-29T19:50:19.759Z,2.63
2022-07-29T19:52:48.066Z,2.80
2022-07-29T19:55:15.550Z,2.97
2022-07-29T19:57:43.018Z,3.00
2022-07-29T20:00:12.876Z,3.00
2022-07-29T20:02:42.849Z,2.90
2022-07-29T20:05:10.562Z,2.67
2022-07-29T20:07:40.653Z,2.78
2022-07-29T20:10:09.035Z,2.40
2022-07-29T20:12:37.401Z,2.97
2022-07-29T20:15:05.156Z,2.75
2022-07-29T20:17:32.618Z,3.72
2022-07-29T20:20:09.469Z,3.20
2022-07-29T20:22:37.188Z,3.92
2022-07-29T20:25:04.970Z,3.42
2022-07-29T20:27:32.482Z,3.90
2022-07-29T20:29:59.969Z,3.65
2022-07-29T20:32:27.454Z,2.92
2022-07-29T20:34:54.967Z,3.70
2022-07-29T20:37:23.813Z,3.33
2022-07-29T20:39:51.250Z,2.92
2022-07-29T20:42:18.686Z,3.00
2022-07-29T20:44:46.191Z,2.92
2022-07-29T20:47:13.671Z,3.28
2022-07-29T20:49:41.127Z,2.63
2022-07-29T20:52:08.624Z,3.20
2022-07-29T20:54:37.449Z,3.03
2022-07-29T20:57:05.049Z,3.40
2022-07-29T20:59:33.389Z,3.33
2022-07-29T21:02:00.855Z,3.20
2022-07-29T21:04:30.717Z,3.80
2022-07-29T21:07:03.218Z,3.65
2022-07-29T21:09:30.863Z,3.30
2022-07-29T21:12:00.627Z,3.90
2022-07-29T21:14:47.395Z,3.63
2022-07-29T21:17:15.098Z,3.08
2022-07-29T21:19:42.620Z,3.67
2022-07-29T21:22:10.400Z,3.70
2022-07-29T21:24:37.839Z,3.15
2022-07-29T21:27:24.745Z,3.05
2022-07-29T21:29:52.459Z,3.88
2022-07-29T21:32:30.066Z,4.00
2022-07-29T21:35:00.764Z,3.70
2022-07-29T21:37:28.278Z,4.40
2022-07-29T21:39:57.849Z,4.35
2022-07-29T21:42:26.658Z,3.95
2022-07-29T21:44:54.138Z,4.10
2022-07-29T21:47:21.570Z,3.50
2022-07-29T21:49:49.806Z,3.88
2022-07-29T21:52:18.562Z,3.78
2022-07-29T21:54:46.109Z,3.60
2022-07-29T21:57:16.679Z,4.38
2022-07-29T21:59:45.509Z,3.92
2022-07-29T22:02:15.652Z,4.13
2022-07-29T22:04:43.162Z,3.90
2022-07-29T22:07:10.622Z,4.13
2022-07-29T22:09:38.078Z,4.63
2022-07-29T22:12:05.901Z,4.68
2022-07-29T22:14:33.415Z,5.40
2022-07-29T22:17:02.705Z,4.55
2022-07-29T22:19:30.631Z,4.25
2022-07-29T22:21:58.521Z,5.10
2022-07-29T22:24:26.015Z,4.35
2022-07-29T22:26:53.467Z,4.70
2022-07-29T22:29:20.923Z,4.90
2022-07-29T22:31:48.402Z,5.07
2022-07-29T22:34:17.325Z,4.53
2022-07-29T22:36:44.807Z,5.03
2022-07-29T22:39:15.502Z,4.50
2022-07-29T22:41:43.147Z,5.32
2022-07-29T22:44:10.783Z,5.47
2022-07-29T22:46:38.308Z,5.93
2022-07-29T22:49:06.219Z,5.32
2022-07-29T22:51:35.545Z,5.78
2022-07-29T22:54:03.115Z,6.20
2022-07-29T22:56:30.567Z,6.28
2022-07-29T22:58:58.056Z,5.80
2022-07-29T23:01:38.038Z,6.15
2022-07-29T23:04:06.312Z,5.60
2022-07-29T23:06:35.171Z,5.93
2022-07-29T23:09:02.795Z,6.50
2022-07-29T23:11:30.396Z,6.15
2022-07-29T23:13:57.888Z,7.10
2022-07-29T23:16:26.148Z,7.38
2022-07-29T23:18:54.548Z,7.68
2022-07-29T23:21:22.038Z,7.20
2022-07-29T23:23:51.548Z,7.53
2022-07-29T23:26:19.147Z,6.32
2022-07-29T23:28:46.851Z,6.85
2022-07-29T23:31:14.350Z,7.20
2022-07-29T23:33:41.919Z,6.38
2022-07-29T23:36:11.402Z,6.65
2022-07-29T23:38:40.728Z,6.38
2022-07-29T23:41:09.920Z,7.03
2022-07-29T23:43:37.703Z,7.00
2022-07-29T23:46:06.432Z,6.97
2022-07-29T23:48:34.773Z,7.72
2022-07-29T23:51:02.352Z,7.65
2022-07-29T23:53:29.890Z,8.50
2022-07-29T23:55:57.407Z,7.68
2022-07-29T23:58:26.205Z,8.45
